Time;durP1;ratioP1;P1;durP2;ratioP2;P2;SDS_P1;SDS_P2;PMS_P1;PMS_P2;Temp;Humidity;BMP_temperature;BMP_pressure;BME280_temperature;BME280_humidity;BME280_pressure;Samples;Min_cycle;Max_cycle;Signal;HPM_P1;HPM_P2
2023/01/13 00:00:05;;;;;;;4.43;0.90;;;;;;;11.58;56.86;98778.31;5178117;28;20133;-72
2023/01/13 00:03:00;;;;;;;1.48;0.40;;;;;;;11.81;55.94;98769.81;5163598;28;20085;-71
2023/01/13 00:05:51;;;;;;;4.38;0.63;;;;;;;11.72;56.95;98780.41;5180886;28;20047;-72
2023/01/13 00:08:42;;;;;;;2.60;0.60;;;;;;;11.46;57.55;98771.59;5184628;28;20532;-75
2023/01/13 00:11:33;;;;;;;7.45;0.73;;;;;;;11.46;57.24;98775.09;5168610;28;20151;-72
2023/01/13 00:14:25;;;;;;;1.35;0.30;;;;;;;12.22;55.63;98763.78;5167422;28;20050;-73
2023/01/13 00:17:15;;;;;;;3.40;0.77;;;;;;;11.75;57.43;98758.00;5170107;28;20054;-73
2023/01/13 00:20:06;;;;;;;1.67;0.55;;;;;;;11.82;56.80;98752.91;5165351;28;20054;-73
2023/01/13 00:22:58;;;;;;;2.80;0.57;;;;;;;11.68;56.71;98744.50;5164680;28;20050;-72
2023/01/13 00:25:49;;;;;;;3.78;0.50;;;;;;;11.29;58.00;98754.69;5181125;28;20042;-72
2023/01/13 00:28:40;;;;;;;2.10;0.50;;;;;;;11.22;58.24;98740.38;5155047;28;20089;-71
2023/01/13 00:31:30;;;;;;;1.42;0.45;;;;;;;11.63;56.97;98757.44;5166264;28;20211;-73
2023/01/13 00:34:21;;;;;;;3.08;0.50;;;;;;;11.88;56.86;98758.44;5168101;28;20072;-71
2023/01/13 00:37:13;;;;;;;1.98;0.60;;;;;;;12.17;56.38;98749.28;5177988;28;20088;-71
2023/01/13 00:40:04;;;;;;;2.40;0.50;;;;;;;12.49;54.46;98750.41;5166745;28;20057;-72
2023/01/13 00:46:08;;;;;;;3.42;0.32;;;;;;;12.13;55.96;98739.97;5176178;28;20057;-72
2023/01/13 00:48:58;;;;;;;2.35;0.50;;;;;;;12.15;55.86;98745.94;5164470;28;20054;-74
2023/01/13 00:51:49;;;;;;;6.03;0.95;;;;;;;12.51;55.07;98743.91;5177577;28;20428;-72
2023/01/13 00:54:39;;;;;;;3.40;0.45;;;;;;;12.26;55.38;98727.06;5166787;28;20116;-72
2023/01/13 00:57:30;;;;;;;1.15;0.30;;;;;;;12.06;55.71;98726.50;5180337;28;20412;-72
2023/01/13 01:00:20;;;;;;;1.25;0.40;;;;;;;11.96;56.08;98716.00;5170136;28;20056;-72
2023/01/13 01:03:11;;;;;;;1.80;0.52;;;;;;;12.27;54.93;98720.75;5165148;28;20487;-73
2023/01/13 01:06:07;;;;;;;1.95;0.60;;;;;;;12.37;55.20;98715.28;5182294;28;20189;-73
2023/01/13 01:08:57;;;;;;;2.47;0.50;;;;;;;12.31;55.85;98711.44;5171743;28;20128;-73
2023/01/13 01:11:48;;;;;;;2.22;0.40;;;;;;;12.45;54.61;98704.69;5176911;28;20472;-74
2023/01/13 01:14:38;;;;;;;1.08;0.52;;;;;;;11.77;56.38;98679.84;5173959;28;20506;-73
2023/01/13 01:17:28;;;;;;;2.97;0.50;;;;;;;12.28;55.88;98714.44;5162985;28;20416;-72
2023/01/13 01:20:19;;;;;;;2.35;0.30;;;;;;;12.16;55.59;98713.91;5163347;28;20047;-72
2023/01/13 01:23:09;;;;;;;2.25;0.52;;;;;;;11.98;55.77;98698.03;5168398;28;20492;-72
2023/01/13 01:26:05;;;;;;;2.80;0.47;;;;;;;11.92;56.44;98701.38;5167822;28;20093;-73
2023/01/13 01:28:56;;;;;;;3.85;0.65;;;;;;;12.03;55.74;98686.13;5174706;28;20062;-73
2023/01/13 01:31:46;;;;;;;2.80;0.60;;;;;;;12.06;55.26;98696.44;5173151;28;20105;-72
2023/01/13 01:34:38;;;;;;;4.60;0.60;;;;;;;11.57;56.61;98685.53;5167211;28;20096;-73
2023/01/13 01:37:28;;;;;;;1.83;0.40;;;;;;;12.09;55.51;98690.81;5179078;28;20049;-72
2023/01/13 01:40:18;;;;;;;0.95;0.40;;;;;;;12.08;55.88;98710.38;5173832;28;20055;-74
2023/01/13 01:46:41;;;;;;;1.88;0.45;;;;;;;12.04;56.34;98709.03;5176874;28;20132;-73
2023/01/13 01:49:35;;;;;;;2.05;0.30;;;;;;;11.96;56.33;98688.59;5168088;28;20611;-71
2023/01/13 01:52:33;;;;;;;1.25;0.57;;;;;;;11.63;56.90;98687.56;5156141;28;20065;-72
2023/01/13 01:55:31;;;;;;;3.53;0.70;;;;;;;12.03;56.15;98702.06;5164693;28;20115;-71
2023/01/13 01:58:31;;;;;;;3.22;0.50;;;;;;;12.32;55.44;98693.69;5165852;28;20053;-73
2023/01/13 02:01:21;;;;;;;2.50;0.52;;;;;;;12.36;55.32;98700.34;5165963;28;20061;-72
2023/01/13 02:04:19;;;;;;;1.48;0.32;;;;;;;12.25;55.51;98690.00;5182356;28;20164;-73
2023/01/13 02:07:10;;;;;;;1.90;0.50;;;;;;;12.21;55.85;98694.81;5157479;28;20053;-73
2023/01/13 02:10:05;;;;;;;2.00;0.50;;;;;;;12.29;55.96;98694.03;5162778;28;20046;-72
2023/01/13 02:12:59;;;;;;;3.47;0.70;;;;;;;12.23;55.54;98696.31;5165771;28;20961;-73
2023/01/13 02:16:13;;;;;;;;;;;;;;;12.15;56.29;98706.06;5168846;28;20049;-74
2023/01/13 02:19:36;;;;;;;0.70;0.30;;;;;;;12.32;55.34;98691.88;5162525;28;20436;-72
2023/01/13 02:22:48;;;;;;;3.17;0.38;;;;;;;12.03;56.72;98697.56;5165859;28;20491;-72
2023/01/13 02:26:19;;;;;;;4.40;0.68;;;;;;;12.21;56.15;98682.34;5173722;28;20046;-74
2023/01/13 02:32:54;;;;;;;4.82;0.52;;;;;;;12.06;56.16;98676.00;5170284;28;20050;-73
2023/01/13 02:36:05;;;;;;;2.83;0.50;;;;;;;12.18;55.99;98664.06;5162017;28;20146;-74
2023/01/13 02:39:01;;;;;;;1.40;0.40;;;;;;;12.27;56.36;98674.72;5176377;28;20085;-73
2023/01/13 02:45:22;;;;;;;2.15;0.43;;;;;;;12.25;55.76;98650.13;5179281;28;20053;-72
2023/01/13 02:48:15;;;;;;;1.73;0.50;;;;;;;12.32;55.92;98661.78;5181792;28;20061;-72
2023/01/13 02:51:13;;;;;;;3.00;0.40;;;;;;;12.11;56.44;98648.94;5177078;28;20196;-73
2023/01/13 02:54:11;;;;;;;1.80;0.40;;;;;;;12.34;55.79;98665.09;5174119;28;20046;-74
2023/01/13 02:57:02;;;;;;;4.20;0.55;;;;;;;12.14;56.83;98651.28;5162456;28;20471;-72
2023/01/13 02:59:54;;;;;;;4.80;0.70;;;;;;;12.32;56.49;98672.44;5174275;28;20104;-72
2023/01/13 03:02:46;;;;;;;2.05;0.50;;;;;;;12.28;56.59;98655.13;5159305;28;20061;-73
2023/01/13 03:05:38;;;;;;;0.57;0.43;;;;;;;12.12;56.67;98656.75;5179238;28;20065;-73
2023/01/13 03:08:53;;;;;;;3.55;0.70;;;;;;;12.14;56.69;98645.94;5166574;28;20149;-74
2023/01/13 03:11:54;;;;;;;;;;;;;;;12.46;56.33;98667.28;5166599;28;20512;-72
2023/01/13 03:15:01;;;;;;;1.23;0.60;;;;;;;12.62;55.57;98650.53;5183426;28;19956;-74
2023/01/13 03:18:18;;;;;;;1.25;0.43;;;;;;;12.48;56.40;98656.47;5170090;28;20053;-74
2023/01/13 03:21:20;;;;;;;1.77;0.50;;;;;;;12.14;56.97;98652.09;5184907;28;20135;-72
2023/01/13 03:24:34;;;;;;;2.35;0.40;;;;;;;12.32;57.05;98653.81;5181100;28;20531;-73
2023/01/13 03:27:34;;;;;;;1.70;0.55;;;;;;;12.38;56.40;98646.03;5172024;28;20054;-73
2023/01/13 03:30:50;;;;;;;0.93;0.50;;;;;;;12.04;57.10;98634.63;5180761;28;20120;-73
2023/01/13 03:33:47;;;;;;;0.73;0.40;;;;;;;12.02;57.37;98631.28;5179817;28;20134;-72
2023/01/13 03:36:39;;;;;;;2.53;0.38;;;;;;;12.03;57.56;98636.47;5169875;28;20109;-73
2023/01/13 03:39:33;;;;;;;4.40;0.40;;;;;;;11.69;57.98;98621.38;5181065;28;20057;-73
2023/01/13 03:42:27;;;;;;;3.10;0.50;;;;;;;11.89;57.50;98616.66;5165348;28;20057;-72
2023/01/13 03:45:18;;;;;;;3.85;0.70;;;;;;;11.98;56.90;98628.97;5179559;28;20042;-73
2023/01/13 03:48:15;;;;;;;1.95;0.40;;;;;;;12.03;57.32;98623.19;5161957;28;20058;-72
2023/01/13 03:51:09;;;;;;;2.00;0.30;;;;;;;11.74;58.05;98620.88;5183801;28;20132;-72
2023/01/13 03:54:06;;;;;;;4.00;0.40;;;;;;;12.15;57.24;98611.25;5182633;28;20057;-73
2023/01/13 03:57:03;;;;;;;0.75;0.40;;;;;;;11.94;57.60;98608.19;5165814;28;20061;-74
2023/01/13 03:59:56;;;;;;;1.65;0.57;;;;;;;12.28;56.59;98589.47;5181755;28;20556;-72
2023/01/13 04:02:58;;;;;;;1.85;0.43;;;;;;;11.72;58.75;98599.81;5163474;28;20141;-73
2023/01/13 04:05:59;;;;;;;0.90;0.40;;;;;;;12.16;56.77;98594.31;5164977;28;20144;-73
2023/01/13 04:09:10;;;;;;;2.28;0.60;;;;;;;11.64;58.63;98586.50;5166614;28;20064;-71
2023/01/13 04:12:08;;;;;;;0.52;0.20;;;;;;;11.25;59.38;98581.66;5184124;28;20143;-73
2023/01/13 04:14:58;;;;;;;0.52;0.30;;;;;;;11.66;58.87;98584.50;5173396;28;20038;-72
2023/01/13 04:17:50;;;;;;;5.03;0.63;;;;;;;12.01;57.59;98582.63;5175550;28;20066;-72
2023/01/13 04:20:42;;;;;;;1.63;0.43;;;;;;;12.01;57.56;98593.25;5162977;28;20093;-73
2023/01/13 04:23:32;;;;;;;1.77;0.50;;;;;;;11.63;58.55;98571.56;5171300;28;20108;-73
2023/01/13 04:26:23;;;;;;;3.42;0.40;;;;;;;11.70;58.16;98571.75;5165125;28;20065;-72
2023/01/13 04:29:13;;;;;;;2.67;0.50;;;;;;;12.10;57.32;98573.69;5167034;28;20053;-74
2023/01/13 04:32:04;;;;;;;5.10;0.55;;;;;;;12.36;56.57;98583.38;5178382;28;20112;-73
2023/01/13 04:34:55;;;;;;;5.05;0.50;;;;;;;12.29;56.41;98585.84;5178267;28;20042;-72
2023/01/13 04:37:45;;;;;;;2.25;0.47;;;;;;;12.21;57.63;98586.66;5167403;28;20054;-73
2023/01/13 04:40:35;;;;;;;1.98;0.40;;;;;;;12.21;57.01;98580.50;5163761;28;20058;-72
2023/01/13 04:43:25;;;;;;;1.45;0.38;;;;;;;12.52;56.06;98586.03;5160991;28;20061;-72
2023/01/13 04:46:16;;;;;;;3.88;0.70;;;;;;;12.67;55.42;98579.03;5167349;28;20045;-72
2023/01/13 04:49:07;;;;;;;3.22;0.52;;;;;;;12.35;56.11;98574.56;5139546;28;20057;-72
2023/01/13 04:51:56;;;;;;;1.63;0.35;;;;;;;12.11;56.63;98563.88;5182892;28;20057;-72
2023/01/13 04:54:46;;;;;;;1.65;0.35;;;;;;;12.49;56.04;98575.72;5167597;28;20184;-72
2023/01/13 04:57:37;;;;;;;2.42;0.50;;;;;;;12.31;56.56;98565.22;5172203;28;20058;-72
2023/01/13 05:00:26;;;;;;;2.03;0.47;;;;;;;12.46;55.85;98573.41;5165455;28;20794;-72
2023/01/13 05:03:17;;;;;;;1.25;0.20;;;;;;;12.62;55.21;98554.78;5175592;28;20056;-73
2023/01/13 05:06:07;;;;;;;3.80;0.50;;;;;;;11.63;57.89;98560.09;5164319;28;20060;-73
2023/01/13 05:08:57;;;;;;;2.83;0.40;;;;;;;12.14;57.03;98575.03;5166894;28;20104;-73
2023/01/13 05:18:05;;;;;;;1.30;0.40;;;;;;;12.47;56.09;98567.06;5180166;28;20555;-73
2023/01/13 05:20:55;;;;;;;5.38;0.47;;;;;;;12.25;56.08;98565.06;5178839;28;20098;-73
2023/01/13 05:26:54;;;;;;;3.53;0.40;;;;;;;12.03;57.12;98579.84;5180165;28;20416;-73
2023/01/13 05:29:44;;;;;;;1.70;0.38;;;;;;;12.36;56.10;98557.59;5175328;28;20527;-73
2023/01/13 05:32:34;;;;;;;1.83;0.30;;;;;;;12.62;54.73;98576.06;5144501;28;20054;-73
2023/01/13 05:35:24;;;;;;;1.10;0.30;;;;;;;12.41;55.43;98570.38;5175121;28;20089;-71
2023/01/13 05:38:16;;;;;;;1.42;0.30;;;;;;;12.44;55.21;98570.88;5164999;28;20416;-73
2023/01/13 05:44:16;;;;;;;3.53;0.50;;;;;;;12.35;55.86;98561.28;5177054;28;20069;-73
2023/01/13 05:47:06;;;;;;;1.48;0.40;;;;;;;12.28;56.57;98559.41;5169214;28;20057;-72
2023/01/13 05:49:56;;;;;;;0.73;0.38;;;;;;;11.84;57.41;98564.97;5171203;28;20535;-73
2023/01/13 05:52:47;;;;;;;1.10;0.30;;;;;;;12.10;56.68;98563.06;5158542;28;20088;-73
2023/01/13 05:55:39;;;;;;;1.48;0.30;;;;;;;12.56;55.28;98555.44;5179435;28;20053;-73
2023/01/13 05:58:29;;;;;;;0.57;0.20;;;;;;;12.79;55.20;98562.75;5181095;28;20050;-71
2023/01/13 06:01:19;;;;;;;1.23;0.30;;;;;;;12.50;55.26;98564.09;5178929;28;20108;-71
2023/01/13 06:04:09;;;;;;;2.05;0.40;;;;;;;12.64;54.83;98571.38;5162860;28;20050;-72
2023/01/13 06:07:00;;;;;;;0.90;0.20;;;;;;;12.93;54.53;98578.00;5172748;28;20134;-70
2023/01/13 06:09:50;;;;;;;3.35;0.43;;;;;;;12.58;55.18;98580.06;5181185;28;20085;-70
2023/01/13 06:12:40;;;;;;;1.58;0.20;;;;;;;12.69;55.41;98582.38;5178443;28;20046;-71
2023/01/13 06:15:31;;;;;;;0.57;0.28;;;;;;;12.09;57.10;98569.38;5167562;28;20053;-73
2023/01/13 06:18:21;;;;;;;1.20;0.30;;;;;;;12.66;55.28;98584.53;5168406;28;20103;-71
2023/01/13 06:21:11;;;;;;;3.35;0.55;;;;;;;12.36;56.56;98591.34;5170583;28;20132;-71
2023/01/13 06:24:01;;;;;;;0.75;0.30;;;;;;;12.43;55.92;98563.91;5172876;28;20550;-71
2023/01/13 06:26:51;;;;;;;0.70;0.20;;;;;;;12.80;55.35;98575.03;5174742;28;20091;-70
2023/01/13 06:29:41;;;;;;;1.90;0.40;;;;;;;12.22;56.72;98569.72;5172196;28;20432;-73
2023/01/13 06:32:37;;;;;;;0.77;0.38;;;;;;;12.64;55.28;98570.56;5153103;28;20049;-71
2023/01/13 06:35:31;;;;;;;1.23;0.35;;;;;;;12.51;56.04;98562.25;5182909;28;20061;-72
2023/01/13 06:38:25;;;;;;;0.73;0.30;;;;;;;12.25;56.44;98562.41;5153324;28;20211;-71
2023/01/13 06:41:15;;;;;;;0.80;0.28;;;;;;;12.39;55.76;98543.97;5177301;28;20057;-69
2023/01/13 06:44:06;;;;;;;1.80;1.08;;;;;;;12.33;56.57;98560.59;5171432;28;20057;-70
2023/01/13 06:46:56;;;;;;;3.10;0.40;;;;;;;12.35;57.08;98566.59;5167207;28;20097;-73
2023/01/13 06:49:47;;;;;;;1.75;0.40;;;;;;;12.33;56.13;98559.75;5173740;28;20131;-72
2023/01/13 06:52:37;;;;;;;0.95;0.30;;;;;;;12.68;55.49;98554.13;5171045;28;20126;-72
2023/01/13 06:55:27;;;;;;;0.38;0.38;;;;;;;12.28;56.79;98548.78;5148128;28;20046;-72
2023/01/13 06:58:17;;;;;;;1.50;0.40;;;;;;;11.99;57.71;98558.06;5179335;28;20053;-73
2023/01/13 07:01:07;;;;;;;0.50;0.30;;;;;;;12.34;57.07;98561.41;5155208;28;20126;-70
2023/01/13 07:03:58;;;;;;;0.10;0.10;;;;;;;12.57;56.31;98550.94;5163033;28;20054;-70
2023/01/13 07:06:48;;;;;;;0.30;0.10;;;;;;;12.51;56.29;98548.94;5150595;28;20049;-70
2023/01/13 07:09:38;;;;;;;2.13;0.30;;;;;;;11.96;57.16;98537.16;5158447;28;20709;-72
2023/01/13 07:12:28;;;;;;;0.32;0.20;;;;;;;12.29;57.41;98548.63;5151748;28;20056;-75
2023/01/13 07:15:18;;;;;;;2.85;0.40;;;;;;;12.22;57.15;98543.16;5149746;28;20057;-70
2023/01/13 07:18:09;;;;;;;3.05;0.20;;;;;;;12.33;57.00;98554.44;5154742;28;20053;-69
2023/01/13 07:21:08;;;;;;;1.85;0.75;;;;;;;11.82;58.63;98556.31;5147064;28;20064;-75
2023/01/13 07:23:58;;;;;;;0.30;0.28;;;;;;;12.02;57.75;98544.47;5151983;28;20061;-71
2023/01/13 07:26:49;;;;;;;1.55;0.40;;;;;;;12.42;56.68;98521.56;5158380;28;20065;-71
2023/01/13 07:29:40;;;;;;;1.40;0.35;;;;;;;12.55;56.20;98543.16;5156867;28;20062;-71
2023/01/13 07:32:31;;;;;;;4.40;0.43;;;;;;;12.23;57.31;98550.13;5156773;28;20053;-72
2023/01/13 07:35:22;;;;;;;0.68;0.20;;;;;;;12.51;56.71;98562.25;5148192;28;20424;-70
2023/01/13 07:38:12;;;;;;;1.77;0.32;;;;;;;12.35;56.85;98541.81;5165700;28;20128;-70
2023/01/13 07:44:12;;;;;;;1.88;0.30;;;;;;;12.68;56.31;98548.78;5163707;28;20045;-73
2023/01/13 07:47:04;;;;;;;2.05;0.40;;;;;;;12.35;57.58;98563.06;5164824;28;20099;-71
2023/01/13 07:49:55;;;;;;;1.70;0.20;;;;;;;12.46;57.08;98557.44;5160650;28;20069;-71
2023/01/13 07:52:45;;;;;;;0.25;0.22;;;;;;;12.48;56.73;98558.09;5137819;28;20412;-72
2023/01/13 07:55:40;;;;;;;0.70;0.30;;;;;;;12.03;57.83;98547.94;5162373;28;20051;-70
2023/01/13 07:58:32;;;;;;;1.15;0.30;;;;;;;12.36;57.33;98565.59;5136820;28;20899;-71
2023/01/13 08:01:22;;;;;;;1.38;0.20;;;;;;;12.51;56.75;98563.06;5146817;28;20535;-70
2023/01/13 08:04:13;;;;;;;0.77;0.20;;;;;;;12.48;56.66;98573.22;5148353;28;20836;-68
2023/01/13 08:07:06;;;;;;;0.25;0.10;;;;;;;12.18;58.88;98579.00;5164427;28;20068;-69
2023/01/13 08:09:57;;;;;;;1.45;0.30;;;;;;;12.01;58.67;98550.75;5152541;28;20800;-69
2023/01/13 08:16:08;;;;;;;2.15;0.10;;;;;;;11.93;60.50;98618.00;5166204;28;20535;-69
2023/01/13 08:18:58;;;;;;;1.17;0.20;;;;;;;12.04;61.36;98608.06;5167736;28;20066;-70
2023/01/13 08:21:49;;;;;;;1.58;0.30;;;;;;;12.36;61.11;98631.22;5156899;28;20053;-68
2023/01/13 08:24:39;;;;;;;0.90;0.17;;;;;;;11.91;63.38;98627.13;5171930;28;20084;-68
2023/01/13 08:27:29;;;;;;;0.65;0.43;;;;;;;11.84;63.83;98634.03;5157868;28;20921;-68
2023/01/13 08:30:20;;;;;;;3.53;0.35;;;;;;;11.65;64.75;98643.91;5151715;28;20554;-69
2023/01/13 08:33:12;;;;;;;1.95;0.40;;;;;;;11.68;64.59;98643.59;5158179;28;20056;-70
2023/01/13 08:36:04;;;;;;;1.10;0.30;;;;;;;11.69;65.99;98669.19;5146631;28;20076;-68
2023/01/13 08:38:54;;;;;;;1.92;0.38;;;;;;;11.68;67.10;98666.66;5156332;28;21409;-69
2023/01/13 08:41:57;;;;;;;1.27;0.40;;;;;;;11.51;66.67;98665.75;5149086;28;20068;-69
2023/01/13 08:44:47;;;;;;;4.18;0.50;;;;;;;11.66;67.52;98696.06;5144491;28;20058;-70
2023/01/13 08:47:38;;;;;;;2.28;0.63;;;;;;;10.96;69.18;98712.00;5154205;28;20053;-69
2023/01/13 08:50:28;;;;;;;2.25;0.60;;;;;;;9.57;74.16;98709.56;5146836;28;20053;-68
2023/01/13 08:53:19;;;;;;;2.67;0.55;;;;;;;9.35;75.27;98732.75;5162603;28;20077;-68
2023/01/13 08:56:10;;;;;;;1.80;0.70;;;;;;;9.80;74.11;98755.06;5156367;28;20184;-71
2023/01/13 08:59:01;;;;;;;4.68;0.30;;;;;;;8.91;76.87;98755.38;5161587;28;20153;-75
2023/01/13 09:01:51;;;;;;;1.92;0.60;;;;;;;9.19;76.01;98766.91;5158267;28;20065;-73
2023/01/13 09:04:42;;;;;;;1.15;0.40;;;;;;;9.61;74.18;98742.75;5147797;28;20066;-72
2023/01/13 09:07:35;;;;;;;1.60;0.47;;;;;;;10.10;71.84;98754.81;5163618;28;20049;-73
2023/01/13 09:10:25;;;;;;;3.50;0.28;;;;;;;9.72;73.65;98742.56;5151390;28;20124;-75
2023/01/13 09:13:16;;;;;;;1.98;0.40;;;;;;;10.13;71.99;98745.72;5158169;28;20073;-71
2023/01/13 09:16:06;;;;;;;1.73;0.40;;;;;;;9.87;72.70;98749.06;5161415;28;20084;-70
2023/01/13 09:18:56;;;;;;;3.13;0.30;;;;;;;9.56;72.22;98766.16;5150117;28;20108;-70
2023/01/13 09:21:47;;;;;;;4.78;0.47;;;;;;;9.85;72.05;98777.50;5161912;28;20210;-73
2023/01/13 09:24:37;;;;;;;1.15;0.43;;;;;;;9.77;72.39;98782.69;5155608;28;20046;-71
2023/01/13 09:27:27;;;;;;;0.55;0.32;;;;;;;10.15;71.29;98780.88;5160261;28;20054;-73
2023/01/13 09:30:18;;;;;;;1.65;0.30;;;;;;;10.03;70.35;98780.22;5147271;28;20059;-76
2023/01/13 09:36:18;;;;;;;2.47;0.50;;;;;;;9.56;70.92;98792.63;5170408;28;20050;-70
2023/01/13 09:39:08;;;;;;;2.15;0.47;;;;;;;10.03;70.16;98782.88;5169155;28;20119;-72
2023/01/13 09:45:31;;;;;;;0.73;0.28;;;;;;;10.57;68.39;98775.94;5153009;28;20049;-71
2023/01/13 09:48:29;;;;;;;4.20;0.50;;;;;;;10.99;67.01;98785.13;5143465;28;20127;-71
2023/01/13 09:51:29;;;;;;;3.17;0.50;;;;;;;10.86;67.04;98780.22;5172740;28;20075;-72
2023/01/13 09:54:47;;;;;;;4.65;0.70;;;;;;;10.73;67.21;98793.84;5164005;28;20456;-72
2023/01/13 09:57:38;;;;;;;3.67;0.50;;;;;;;10.90;66.23;98781.59;5162109;28;20069;-70
2023/01/13 10:00:38;;;;;;;5.38;0.73;;;;;;;10.40;68.11;98797.94;5157480;28;20057;-74
2023/01/13 10:03:33;;;;;;;2.17;0.55;;;;;;;10.73;67.47;98783.25;5144372;28;20519;-70
2023/01/13 10:06:34;;;;;;;4.82;0.80;;;;;;;10.96;66.38;98804.00;5156517;28;20058;-69
2023/01/13 10:09:51;;;;;;;4.70;0.70;;;;;;;11.21;65.70;98800.59;5148733;28;21630;-69
2023/01/13 10:16:02;;;;;;;2.83;0.60;;;;;;;10.80;66.80;98784.31;5155503;28;20548;-69
2023/01/13 10:19:05;;;;;;;3.95;0.55;;;;;;;10.58;66.64;98798.81;5148172;28;20109;-69
2023/01/13 10:22:32;;;;;;;1.25;0.43;;;;;;;10.65;67.01;98812.31;5161160;28;20053;-71
2023/01/13 10:25:49;;;;;;;3.67;0.70;;;;;;;10.81;66.41;98793.91;5163429;28;20053;-70
2023/01/13 10:28:40;;;;;;;3.22;0.60;;;;;;;10.64;66.33;98800.03;5146762;28;20046;-71
2023/01/13 10:31:30;;;;;;;6.35;0.93;;;;;;;10.69;66.53;98783.66;5158477;28;20053;-74
2023/01/13 10:34:21;;;;;;;6.07;1.08;;;;;;;10.49;66.27;98777.66;5164581;28;20108;-73
2023/01/13 10:37:20;;;;;;;6.13;0.90;;;;;;;10.25;67.21;98776.34;5146909;28;20554;-73
2023/01/13 10:40:16;;;;;;;10.10;0.82;;;;;;;9.95;67.58;98787.22;5161653;28;20097;-73
2023/01/13 10:43:08;;;;;;;9.02;0.70;;;;;;;10.13;67.84;98801.34;5148955;28;20724;-74
2023/01/13 10:46:05;;;;;;;7.43;0.95;;;;;;;10.27;67.47;98808.88;5154602;28;20069;-74
2023/01/13 10:48:57;;;;;;;4.82;0.65;;;;;;;10.67;65.49;98815.66;5162618;28;20642;-75
2023/01/13 10:51:48;;;;;;;5.95;0.80;;;;;;;10.93;65.68;98817.59;5162259;28;20524;-75
2023/01/13 10:54:50;;;;;;;2.88;0.68;;;;;;;10.92;65.88;98832.66;5165508;28;20184;-74
2023/01/13 10:57:41;;;;;;;8.23;0.80;;;;;;;10.63;66.03;98816.94;5162742;28;20056;-73
2023/01/13 11:00:32;;;;;;;5.90;0.68;;;;;;;10.56;65.27;98821.13;5170651;28;20575;-73
2023/01/13 11:03:23;;;;;;;5.63;0.82;;;;;;;10.57;66.63;98817.53;5172555;28;20136;-72
2023/01/13 11:06:26;;;;;;;6.47;0.70;;;;;;;10.00;67.92;98817.59;5161288;28;20042;-73
2023/01/13 11:09:24;;;;;;;4.28;0.63;;;;;;;10.04;68.29;98805.72;5160148;28;20046;-73
2023/01/13 11:12:33;;;;;;;4.75;0.60;;;;;;;10.04;67.01;98818.97;5166455;28;20060;-72
2023/01/13 11:15:48;;;;;;;2.97;0.70;;;;;;;10.44;66.84;98825.81;5152513;28;20050;-74
2023/01/13 11:19:12;;;;;;;2.47;0.75;;;;;;;10.42;65.95;98816.34;5154960;28;20054;-73
2023/01/13 11:22:10;;;;;;;5.63;0.80;;;;;;;10.72;64.37;98821.31;5164825;28;20054;-74
2023/01/13 11:25:04;;;;;;;5.95;1.00;;;;;;;10.06;66.60;98827.59;5162492;28;20087;-73
2023/01/13 11:28:01;;;;;;;2.70;0.80;;;;;;;10.31;65.58;98836.75;5157503;28;20126;-72
2023/01/13 11:31:30;;;;;;;5.78;0.93;;;;;;;10.72;65.38;98831.94;5159344;28;20068;-73
2023/01/13 11:34:34;;;;;;;4.78;1.13;;;;;;;10.43;65.99;98844.50;5145472;28;20065;-74
2023/01/13 11:37:31;;;;;;;;;;;;;;;10.65;65.18;98838.81;5158780;28;20042;-74
2023/01/13 11:40:39;;;;;;;7.03;1.48;;;;;;;10.23;65.71;98844.56;5169651;23;19928;-80
2023/01/13 11:43:50;;;;;;;6.07;1.52;;;;;;;10.04;66.63;98828.75;5214323;28;20045;-81
2023/01/13 11:46:42;;;;;;;7.03;1.13;;;;;;;9.93;67.17;98840.31;5201219;28;20540;-81
2023/01/13 11:49:33;;;;;;;2.67;1.20;;;;;;;10.16;65.53;98811.66;5219737;28;20060;-84
2023/01/13 11:52:53;;;;;;;9.27;1.00;;;;;;;9.97;66.72;98854.97;5221113;28;20068;-80
2023/01/13 11:56:08;;;;;;;8.43;1.15;;;;;;;9.92;66.56;98857.19;5226122;28;20056;-81
2023/01/13 11:59:16;;;;;;;4.90;0.95;;;;;;;10.17;66.01;98823.97;5208887;28;20596;-79
2023/01/13 12:02:22;;;;;;;9.63;1.63;;;;;;;10.41;65.04;98817.31;5203403;28;20079;-80
2023/01/13 12:05:31;;;;;;;13.20;2.90;;;;;;;9.89;67.01;98821.25;5200259;28;20055;-80
2023/01/13 12:08:49;;;;;;;12.63;1.30;;;;;;;10.44;64.60;98809.09;5224011;28;20183;-79
2023/01/13 12:12:18;;;;;;;6.53;1.20;;;;;;;10.17;64.75;98821.31;5201670;28;20462;-81
2023/01/13 12:15:31;;;;;;;3.13;0.93;;;;;;;10.09;65.52;98808.75;5188642;28;20124;-81
2023/01/13 12:18:54;;;;;;;3.80;1.35;;;;;;;10.43;64.92;98823.28;5203716;28;20488;-82
2023/01/13 12:22:07;;;;;;;5.78;1.00;;;;;;;10.05;65.25;98836.53;5213228;28;20049;-82
2023/01/13 12:25:38;;;;;;;5.63;1.15;;;;;;;10.07;65.15;98820.50;5211878;28;20060;-82
2023/01/13 12:28:42;;;;;;;8.45;1.30;;;;;;;10.27;64.13;98814.19;5201802;28;20056;-81
2023/01/13 12:31:38;;;;;;;5.60;0.83;;;;;;;10.35;64.39;98840.78;5207684;28;20053;-82
2023/01/13 12:34:52;;;;;;;8.93;0.93;;;;;;;10.09;64.49;98837.06;5198395;28;20637;-81
2023/01/13 12:37:56;;;;;;;4.80;0.67;;;;;;;10.10;64.95;98859.97;5206155;28;20087;-82
2023/01/13 12:41:18;;;;;;;2.88;0.70;;;;;;;10.44;63.40;98854.16;5200046;28;20052;-82
2023/01/13 12:44:17;;;;;;;5.15;0.82;;;;;;;10.33;63.03;98824.19;5193857;28;20072;-82
2023/01/13 12:47:36;;;;;;;6.50;0.95;;;;;;;10.90;62.14;98862.97;5198020;28;20134;-82
2023/01/13 12:50:26;;;;;;;3.13;0.98;;;;;;;10.19;62.95;98874.97;5216170;28;20064;-82
2023/01/13 12:53:31;;;;;;;4.10;0.60;;;;;;;9.47;64.04;98875.50;5199967;28;20115;-82
2023/01/13 12:56:35;;;;;;;3.83;0.70;;;;;;;9.37;66.18;98889.59;5201426;28;20055;-82
2023/01/13 12:59:26;;;;;;;7.00;0.80;;;;;;;9.18;67.93;98908.09;5206212;28;20630;-82
2023/01/13 13:02:25;;;;;;;6.97;2.08;;;;;;;8.94;69.87;98872.28;5202228;28;20053;-82
2023/01/13 13:05:21;;;;;;;10.65;1.10;;;;;;;9.24;67.71;98878.44;5219544;28;20288;-83
2023/01/13 13:08:15;;;;;;;3.50;0.77;;;;;;;9.57;67.89;98887.78;5220536;28;20123;-83
2023/01/13 13:13:16;;;;;;;3.83;0.88;;;;;;;9.36;68.39;98882.59;5194508;28;20211;-82
2023/01/13 13:14:40;;;;;;;4.68;0.95;;;;;;;9.74;67.02;98861.56;5227994;28;20106;-83
2023/01/13 13:17:30;;;;;;;6.53;1.27;;;;;;;9.97;65.37;98877.97;5212274;28;20115;-82
2023/01/13 13:20:53;;;;;;;10.15;1.98;;;;;;;9.79;64.83;98878.69;5196779;28;20048;-82
2023/01/13 13:23:56;;;;;;;13.25;2.45;;;;;;;9.65;63.68;98866.72;5216176;28;20045;-84
2023/01/13 13:26:46;;;;;;;9.50;2.00;;;;;;;9.71;63.81;98844.16;5213497;28;21733;-83
2023/01/13 13:29:55;;;;;;;8.20;1.67;;;;;;;9.79;63.29;98878.69;5212431;28;20287;-82
2023/01/13 13:33:00;;;;;;;4.78;1.20;;;;;;;9.57;62.69;98886.91;5232601;28;20049;-83
2023/01/13 13:35:53;;;;;;;9.00;1.27;;;;;;;10.17;61.39;98890.19;5207679;28;20044;-83
2023/01/13 13:48:59;;;;;;;7.28;1.48;;;;;;;8.95;62.24;98865.19;5204670;28;20077;-82
2023/01/13 13:51:59;;;;;;;7.78;1.08;;;;;;;9.40;62.86;98910.50;5229358;28;20045;-82
2023/01/13 13:54:54;;;;;;;15.00;1.67;;;;;;;10.07;60.42;98908.75;5230544;28;20060;-82
2023/01/13 13:57:49;;;;;;;14.82;1.40;;;;;;;9.64;61.37;98891.53;5214421;28;20053;-82
2023/01/13 14:00:40;;;;;;;11.50;1.10;;;;;;;9.35;61.43;98917.16;5221491;28;20049;-82
2023/01/13 14:03:34;;;;;;;7.30;1.10;;;;;;;9.53;60.27;98927.88;5203517;28;20053;-83
2023/01/13 14:06:28;;;;;;;8.48;1.10;;;;;;;9.83;62.01;98956.88;5201801;28;20048;-82
2023/01/13 14:09:20;;;;;;;9.18;1.38;;;;;;;8.43;67.99;98947.22;5212326;28;20055;-83
2023/01/13 14:12:22;;;;;;;8.70;2.10;;;;;;;9.26;66.28;98970.88;5192448;28;20060;-82
2023/01/13 14:15:23;;;;;;;5.85;1.25;;;;;;;9.45;65.13;98963.00;5207579;28;20099;-81
2023/01/13 14:18:17;;;;;;;10.73;1.90;;;;;;;9.63;64.63;98948.13;5220144;28;20147;-81
2023/01/13 14:21:28;;;;;;;9.70;1.30;;;;;;;9.94;63.66;98929.41;5198292;28;20061;-82
2023/01/13 14:24:21;;;;;;;9.00;1.20;;;;;;;8.97;62.76;98918.75;5212096;28;20049;-82
2023/01/13 14:27:17;;;;;;;7.32;1.00;;;;;;;9.63;62.03;98948.13;5199540;28;20124;-81
2023/01/13 14:30:11;;;;;;;9.20;1.00;;;;;;;9.68;60.05;98944.22;5195160;28;20561;-81
2023/01/13 14:33:02;;;;;;;7.55;1.20;;;;;;;10.14;58.21;98947.94;5182749;28;20048;-81
2023/01/13 14:36:15;;;;;;;5.22;0.88;;;;;;;9.45;59.23;98970.09;5196071;28;20060;-81
2023/01/13 14:39:06;;;;;;;5.80;0.87;;;;;;;9.82;59.82;98970.25;5198808;28;20109;-81
2023/01/13 14:41:56;;;;;;;5.68;1.30;;;;;;;9.93;58.44;98934.84;5212418;28;20079;-82